Home > Products > Valid Products > TAF

000
FTUS42 TJSJ 022339
TAFJPS
TAF
TJPS 022339Z 0300/0324 07005KT P6SM FEW030
     FM031400 16010KT P6SM SCT030
     FM032330 04005KT P6SM FEW030 SCT060
      AMD NOT SKED TIL 030300=



000
FTUS42 TJSJ 022339
TAFISX
TAF
TISX 022339Z 0300/0324 VRB05KT P6SM FEW040
     FM031300 12009KT P6SM FEW030 FEW050
     FM032300 04003KT P6SM FEW025=



000
FTUS42 TJSJ 022339
TAFJBQ
TAF
TJBQ 022339Z 0300/0324 VRB05KT P6SM FEW030 FEW060
     FM031300 04008KT P6SM FEW025 SCT035
     FM032300 VRB05KT P6SM FEW025
      AMD NOT SKED 0302/0311=



000
FTUS42 TJSJ 022339
TAFKPK
TAF
TKPK 022339Z 0300/0324 05005KT P6SM SCT018
     FM031300 08010KT P6SM FEW030 FEW050
     FM032300 05006KT P6SM FEW025
      AMD NOT SKED 0302/0311=



000
FTUS42 TJSJ 022339
TAFNCM
TAF
TNCM 022339Z 0300/0324 10005KT P6SM SCT018
     FM031300 12011KT P6SM FEW030 FEW050
     FM032300 08005KT P6SM FEW025=



000
FTUS42 TJSJ 022339
TAFJSJ
TAF
TJSJ 022339Z 0300/0324 10005KT P6SM FEW030
     FM031300 08009KT P6SM FEW030
     FM032200 10006KT P6SM FEW030=



000
FTUS42 TJSJ 022339
TAFIST
TAF
TIST 022339Z 0300/0324 10007KT P6SM FEW040
     FM031300 12009KT P6SM FEW030 FEW050
     FM032300 07005KT P6SM FEW025=



000
FTUS42 TJSJ 022339
TAFJMZ
TAF
TJMZ 022339Z 0300/0324 VRB05KT P6SM SCT040
     FM031500 27019KT P6SM VCSH SCT022 SCT040
     FM032200 06006KT P6SM FEW040
      AMD NOT SKED TIL 031500=



000
FTUS42 TJSJ 021754
TAFNCM
TAF
TNCM 021754Z 0218/0318 13011KT P6SM FEW022
     FM022100 10005KT P6SM SCT018
     FM031300 12011KT P6SM FEW030 FEW050=



000
FTUS42 TJSJ 021754
TAFKPK
TAF
TKPK 021754Z 0218/0318 08010KT P6SM FEW020
     FM022100 05005KT P6SM SCT018
     FM031300 08010KT P6SM FEW030 FEW050
      AMD NOT SKED 0302/0311=



000
FTUS42 TJSJ 021751
TAFISX
TAF
TISX 021751Z 0218/0318 13012KT P6SM VCSH FEW025 SCT050
     FM022300 VRB05KT P6SM FEW040
     FM031300 12009KT P6SM FEW030 FEW050=



000
FTUS42 TJSJ 021751
TAFIST
TAF
TIST 021751Z 0218/0318 14012KT P6SM VCSH SCT025 SCT050
     FM022300 10007KT P6SM FEW040
     FM031300 12009KT P6SM FEW030 FEW050=



000
FTUS42 TJSJ 021751
TAFIST
TAF
TIST 021751Z 0218/0318 14012KT P6SM VCSH SCT025 SCT050
     FM022300 10007KT P6SM FEW040
     FM031300 12009KT P6SM FEW030 FEW050=



000
FTUS42 TJSJ 021751
TAFISX
TAF
TISX 021751Z 0218/0318 13012KT P6SM VCSH FEW025 SCT050
     FM022300 VRB05KT P6SM FEW040
     FM031300 12009KT P6SM FEW030 FEW050=



000
FTUS42 TJSJ 021748
TAFJBQ
TAF
TJBQ 021748Z 0218/0318 06012KT P6SM VCSH FEW030 SCT050
      TEMPO 0218/0221 VRB12G20KT 5SM TSRA BKN025CB OVC030
     FM030000 VRB05KT P6SM FEW030 FEW060
     FM031300 04008KT P6SM FEW025 SCT035
      AMD NOT SKED 0302/0311=



000
FTUS42 TJSJ 021748
TAFJPS
TAF
TJPS 021748Z 0218/0318 16010KT P6SM SCT030 SCT060
     FM022300 07005KT P6SM FEW030
     FM031400 16010KT P6SM SCT030
      AMD NOT SKED TIL 030300=



000
FTUS42 TJSJ 021748
TAFJMZ
TAF
TJMZ 021748Z 0218/0318 27010KT P6SM VCSH SCT030
     FM021900 27010KT P6SM VCTS BKN030CB
      TEMPO 0219/0221 VRB12G20KT 5SM TSRA BKN025CB
     FM030000 VRB05KT P6SM SCT030
     FM031500 27019KT P6SM VCSH BKN040=



000
FTUS42 TJSJ 021748
TAFJSJ
TAF
TJSJ 021748Z 0218/0318 07010KT P6SM FEW030 SCT070
     FM022300 10005KT P6SM FEW030
     FM031300 08009KT P6SM FEW030=



000
FTUS42 TJSJ 021124
TAFJBQ
TAF
TJBQ 021124Z 0212/0312 VRB05KT P6SM FEW025
     FM021430 06012KT P6SM VCSH FEW030 SCT050
     FM022000 08010KT P6SM VCTS SCT030CB BKN060
     FM030000 VRB05KT P6SM FEW030
      AMD NOT SKED 0302/0311=



000
FTUS42 TJSJ 021124
TAFJSJ
TAF
TJSJ 021124Z 0212/0312 VRB04KT P6SM VCSH FEW025 SCT050
     FM021430 07010KT P6SM FEW030 SCT070
     FM022300 10005KT P6SM FEW030=



000
FTUS42 TJSJ 021124
TAFIST
TAF
TIST 021124Z 0212/0312 VRB05KT P6SM VCSH FEW025
     FM021300 14012KT P6SM VCSH FEW025 SCT050
     FM022300 08008KT P6SM FEW040=



000
FTUS42 TJSJ 021124
TAFNCM
TAF
TNCM 021124Z 0212/0312 11008KT P6SM VCSH SCT020 SCT050
     FM021330 13010KT P6SM FEW022
     FM022100 08008KT P6SM SCT020=



000
FTUS42 TJSJ 021124
TAFISX
TAF
TISX 021124Z 0212/0312 VRB05KT P6SM VCSH FEW025 SCT050
     FM021300 12012KT P6SM FEW025 SCT050
     FM022300 06008KT P6SM FEW040=



000
FTUS42 TJSJ 021124
TAFJMZ
TAF
TJMZ 021124Z 0212/0312 VRB05KT P6SM FEW030 SCT060
     FM021500 27010KT P6SM VCSH SCT030
     FM021900 27010KT P6SM VCTS BKN030CB
     FM030000 VRB05KT P6SM SCT030
      AMD NOT SKED TIL 021600=



000
FTUS42 TJSJ 021124
TAFKPK
TAF
TKPK 021124Z 0212/0312 09008KT P6SM VCSH SCT018 SCT050
     FM021330 08010KT P6SM FEW020
     FM022100 05008KT P6SM FEW020
      AMD NOT SKED 0302/0311=



000
FTUS42 TJSJ 021124
TAFJPS
TAF
TJPS 021124Z 0212/0312 VRB03KT P6SM FEW030 SCT120
     FM021400 15010KT P6SM SCT030
     FM022300 07005KT P6SM FEW030
      AMD NOT SKED TIL 030300=



000
FTUS42 TJSJ 021124
TAFJMZ
TAF
TJMZ 021124Z 0212/0312 VRB05KT P6SM FEW030 SCT060
     FM021500 27010KT P6SM VCSH SCT030
     FM021900 27010KT P6SM VCTS BKN030CB
     FM030000 VRB05KT P6SM SCT030
      AMD NOT SKED TIL 021600=



000
FTUS42 TJSJ 021124
TAFISX
TAF
TISX 021124Z 0212/0312 VRB05KT P6SM VCSH FEW025 SCT050
     FM021300 12012KT P6SM FEW025 SCT050
     FM022300 06008KT P6SM FEW040=



000
FTUS42 TJSJ 021124
TAFJBQ
TAF
TJBQ 021124Z 0212/0312 VRB05KT P6SM FEW025
     FM021430 06012KT P6SM VCSH FEW030 SCT050
     FM022000 08010KT P6SM VCTS SCT030CB BKN060
     FM030000 VRB05KT P6SM FEW030
      AMD NOT SKED 0302/0311=



000
FTUS42 TJSJ 021124
TAFNCM
TAF
TNCM 021124Z 0212/0312 11008KT P6SM VCSH SCT020 SCT050
     FM021330 13010KT P6SM FEW022
     FM022100 08008KT P6SM SCT020=



000
FTUS42 TJSJ 021124
TAFKPK
TAF
TKPK 021124Z 0212/0312 09008KT P6SM VCSH SCT018 SCT050
     FM021330 08010KT P6SM FEW020
     FM022100 05008KT P6SM FEW020
      AMD NOT SKED 0302/0311=



000
FTUS42 TJSJ 021124
TAFIST
TAF
TIST 021124Z 0212/0312 VRB05KT P6SM VCSH FEW025
     FM021300 14012KT P6SM VCSH FEW025 SCT050
     FM022300 08008KT P6SM FEW040=



000
FTUS42 TJSJ 021124
TAFJPS
TAF
TJPS 021124Z 0212/0312 VRB03KT P6SM FEW030 SCT120
     FM021400 15010KT P6SM SCT030
     FM022300 07005KT P6SM FEW030
      AMD NOT SKED TIL 030300=



000
FTUS42 TJSJ 021124
TAFJSJ
TAF
TJSJ 021124Z 0212/0312 VRB04KT P6SM VCSH FEW025 SCT050
     FM021430 07010KT P6SM FEW030 SCT070
     FM022300 10005KT P6SM FEW030=



000
FTUS42 TJSJ 020822 AAB
TAFJSJ
TAF AMD
TJSJ 020822Z 0208/0306 VRB05KT P6SM VCTS FEW025 SCT050CB
     FM021100 VRB04KT P6SM VCSH FEW025 SCT050
     FM021430 07010KT P6SM FEW030 SCT070
     FM022300 10005KT P6SM FEW030=



000
FTUS42 TJSJ 020736 AAA
TAFIST
TAF AMD
TIST 020736Z 0208/0306 VRB06KT P6SM VCSH FEW025
     FM021300 14012KT P6SM VCSH FEW025 SCT050
     FM022300 08008KT P6SM FEW040=



000
FTUS42 TJSJ 020736 AAA
TAFIST
TAF AMD
TIST 020736Z 0208/0306 VRB06KT P6SM VCSH FEW025
     FM021300 14012KT P6SM VCSH FEW025 SCT050
     FM022300 08008KT P6SM FEW040=



000
FTUS42 TJSJ 020540
TAFJMZ
TAF
TJMZ 020540Z 0206/0306 VRB05KT P6SM FEW030 SCT060
     FM021500 27010KT P6SM VCSH SCT030
     FM021900 27010KT P6SM VCTS BKN030CB
     FM030000 VRB05KT P6SM SCT030
      AMD NOT SKED TIL 021600=



000
FTUS42 TJSJ 020540
TAFJSJ
TAF
TJSJ 020540Z 0206/0306 VRB05KT P6SM VCSH FEW025 SCT050
     FM021430 07010KT P6SM FEW030 SCT070
     FM022300 10005KT P6SM FEW030=



000
FTUS42 TJSJ 020540
TAFIST
TAF
TIST 020540Z 0206/0306 08006KT P6SM VCSH FEW025
      TEMPO 0206/0208 VRB10KT 3SM SHRA BKN025
     FM021300 14012KT P6SM VCSH FEW025 SCT050
     FM022300 08008KT P6SM FEW040=



000
FTUS42 TJSJ 020540
TAFNCM
TAF
TNCM 020540Z 0206/0306 10008KT P6SM VCSH SCT020 SCT050
     FM021330 13010KT P6SM FEW022
     FM022100 08008KT P6SM SCT020=



000
FTUS42 TJSJ 020540
TAFKPK
TAF
TKPK 020540Z 0206/0306 06008KT P6SM VCSH SCT018 SCT050
     FM021330 08010KT P6SM FEW020
     FM022100 05008KT P6SM FEW020
      AMD NOT SKED TIL 021100=



000
FTUS42 TJSJ 020540
TAFJPS
TAF
TJPS 020540Z 0206/0306 VRB03KT P6SM FEW030 SCT120
     FM021400 15010KT P6SM SCT030
     FM022300 07005KT P6SM FEW030
      AMD NOT SKED 0211/0303=



000
FTUS42 TJSJ 020540
TAFJBQ
TAF
TJBQ 020540Z 0206/0306 VRB06KT P6SM FEW025
     FM021430 06012KT P6SM VCSH FEW030 SCT050
     FM022000 08010KT P6SM VCTS SCT030CB BKN060
     FM030000 VRB05KT P6SM FEW030
      AMD NOT SKED TIL 021100=



000
FTUS42 TJSJ 020540
TAFISX
TAF
TISX 020540Z 0206/0306 VRB05KT P6SM VCSH FEW025 SCT050
     FM021300 12012KT P6SM FEW025 SCT050
     FM022300 06008KT P6SM FEW040=



000
FTUS42 TJSJ 020010 RRA
TAFKPK
TAF
TKPK 020010Z 0200/0224 07008KT P6SM VCSH FEW018 BKN050 BKN120
      TEMPO 0200/0202 VRB12G19KT 5SM -SHRA BKN018
     FM020230 05008KT P6SM -RA SCT018 SCT050 SCT120
     FM021230 07011KT P6SM FEW022
      AMD NOT SKED 0202/0211=



000
FTUS42 TJSJ 020010 RRA
TAFIST
TAF
TIST 020010Z 0200/0224 10009KT P6SM VCSH SCT025 BKN050 BKN120
      TEMPO 0200/0202 VRB12G19KT 5SM SHRA BKN025
     FM020230 08006KT P6SM -RA FEW025 SCT050 SCT120
     FM021300 12012KT P6SM FEW025 SCT050=



000
FTUS42 TJSJ 020010 RRA
TAFJMZ
TAF
TJMZ 020010Z 0200/0224 08006KT P6SM FEW025 BKN050 BKN100
     FM020230 05003KT P6SM FEW030 SCT060 SCT120
     FM021430 07015KT P6SM FEW030
      AMD NOT SKED TIL 021100=



000
FTUS42 TJSJ 020010 RRA
TAFJSJ
TAF
TJSJ 020010Z 0200/0224 07009KT P6SM VCTS SCT022CB BKN040 BKN070
      TEMPO 0200/0203 VRB12G22KT 3SM TSRA BKN020CB OVC050
     FM020300 09008KT P6SM VCSH SCT022 BKN050 BKN100
     FM021200 10004KT P6SM FEW025 SCT050 SCT120
     FM021430 07011KT P6SM FEW030 SCT070=



000
FTUS42 TJSJ 020010 RRA
TAFNCM
TAF
TNCM 020010Z 0200/0224 09009KT P6SM VCTS FEW015CB BKN050 BKN120
      TEMPO 0200/0202 VRB12G19KT 5SM SHRA SCT015 BKN020
     FM020230 08008KT P6SM -RA SCT020 SCT050 SCT120
     FM021230 12011KT P6SM FEW022=



000
FTUS42 TJSJ 020010 RRA
TAFJPS
TAF
TJPS 020010Z 0200/0224 07006KT P6SM SCT025 SCT050 BKN100
     FM020300 VRB03KT P6SM FEW030 SCT120
     FM021400 11005KT P6SM SCT030
      AMD NOT SKED TIL 020300=



000
FTUS42 TJSJ 020010 RRA
TAFJBQ
TAF
TJBQ 020010Z 0200/0224 09008KT P6SM VCSH SCT025 BKN050 BKN100
      TEMPO 0200/0202 VRB12G20KT 5SM -TSRA BKN025CB OVC030
     FM020230 10006KT P6SM -RA FEW025 SCT050 SCT120
     FM021430 07015KT P6SM FEW030 SCT050
      AMD NOT SKED 0202/0211=



000
FTUS42 TJSJ 020010 RRA
TAFISX
TAF
TISX 020010Z 0200/0224 06006KT P6SM VCSH SCT025 BKN050 BKN120
      TEMPO 0200/0202 VRB12G19KT 5SM SHRA BKN025
     FM020230 05006KT P6SM -RA FEW025 SCT050 SCT120
     FM021300 10012KT P6SM FEW025 SCT050=



000
FTUS42 TJSJ 012254 AAE
TAFJSJ
TAF AMD
TJSJ 012254Z 0123/0218 06011KT P6SM VCTS SCT022CB SCT035 BKN070
      TEMPO 0123/0201 VRB12G25KT 1SM +TSRA BKN020CB OVC050
     FM020130 09010KT P6SM VCSH SCT022 BKN050 BKN100
     FM020200 10007KT P6SM FEW025 SCT050 SCT120
     FM021400 11010KT P6SM FEW030=



000
FTUS42 TJSJ 012254 AAE
TAFJSJ
TAF AMD
TJSJ 012254Z 0123/0218 06011KT P6SM VCTS SCT022CB SCT035 BKN070
      TEMPO 0123/0201 VRB12G25KT 1SM +TSRA BKN020CB OVC050
     FM020130 09010KT P6SM VCSH SCT022 BKN050 BKN100
     FM020200 10007KT P6SM FEW025 SCT050 SCT120
     FM021400 11010KT P6SM FEW030=



000
FTUS42 TJSJ 012152 AAD
TAFJSJ
TAF AMD
TJSJ 012152Z 0122/0218 06012KT P6SM VCTS FEW022CB SCT035 BKN070
      TEMPO 0122/0123 VRB12G19KT 5SM -TSRA SCT022CB BKN030
     FM012330 09010KT P6SM VCSH SCT022 BKN050 BKN100
     FM020200 10007KT P6SM FEW025 SCT050 SCT120
     FM021400 11010KT P6SM FEW030=



000
FTUS42 TJSJ 011947 AAC
TAFJSJ
TAF AMD
TJSJ 011947Z 0120/0218 06012KT P6SM VCTS FEW022CB SCT040 BKN060
      TEMPO 0120/0121 VRB12G19KT 5SM -TSRA SCT022CB BKN030
     FM012200 09010KT P6SM SCT022 SCT035 BKN070
     FM021400 11010KT P6SM FEW030=



000
FTUS42 TJSJ 011828 AAB
TAFJMZ
TAF AMD
TJMZ 011828Z 0118/0218 05003KT P6SM VCTS BKN030CB
      TEMPO 0119/0121 3SM +TSRA OVC025CB
     FM012330 07006KT P6SM FEW030
     FM021430 07015KT P6SM FEW030
      AMD NOT SKED=



000
FTUS42 TJSJ 011828 AAB
TAFJMZ
TAF AMD
TJMZ 011828Z 0118/0218 05003KT P6SM VCTS BKN030CB
      TEMPO 0119/0121 3SM +TSRA OVC025CB
     FM012330 07006KT P6SM FEW030
     FM021430 07015KT P6SM FEW030
      AMD NOT SKED=



000
FTUS42 TJSJ 011721 AAA
TAFISX
TAF AMD
TISX 011721Z 0118/0218 07007KT P6SM VCSH SCT025 SCT040
     FM012300 08009KT P6SM VCSH SCT025
     FM021300 12012KT P6SM FEW030=



000
FTUS42 TJSJ 011721 AAA
TAFJMZ
TAF AMD
TJMZ 011721Z 0118/0218 05003KT P6SM FEW120
     FM012330 07006KT P6SM FEW030
     FM021430 07015KT P6SM FEW030
      AMD NOT SKED=



000
FTUS42 TJSJ 011721 AAA
TAFIST
TAF AMD
TIST 011721Z 0118/0218 07007KT P6SM VCSH SCT025 SCT040
     FM012300 09008KT P6SM VCSH SCT025
     FM021300 12012KT P6SM FEW020 FEW040=



000
FTUS42 TJSJ 011721 AAA
TAFNCM
TAF AMD
TNCM 011721Z 0118/0218 10007KT P6SM VCSH SCT016 SCT030
     FM012300 09008KT P6SM SCT025
     FM021230 10011KT P6SM FEW025=



000
FTUS42 TJSJ 011721 AAA
TAFJBQ
TAF AMD
TJBQ 011721Z 0118/0218 08010KT P6SM VCSH SCT025 BKN050
      TEMPO 0119/0121 VRB12G20KT 4SM TSRA BKN020CB OVC030
     FM012300 09008KT P6SM VCSH SCT025
     FM021430 07015KT P6SM FEW030
      AMD NOT SKED 0202/0211=



000
FTUS42 TJSJ 011721 AAA
TAFJSJ
TAF AMD
TJSJ 011721Z 0118/0218 11005KT P6SM VCSH FEW022 SCT030
     FM012200 09010KT P6SM SCT022 SCT035 BKN070
     FM021400 11010KT P6SM FEW030=



000
FTUS42 TJSJ 011721 AAA
TAFJPS
TAF AMD
TJPS 011721Z 0118/0218 12012KT P6SM VCSH SCT025 SCT050
     FM012300 10010KT P6SM SCT030
     FM021400 11005KT P6SM FEW030
      AMD NOT SKED TIL 020300=



000
FTUS42 TJSJ 011721 AAA
TAFKPK
TAF AMD
TKPK 011721Z 0118/0218 05007KT P6SM VCTS SCT018CB SCT030
     FM012300 08009KT P6SM SCT022
     FM021230 10011KT P6SM FEW025
      AMD NOT SKED 0202/0211=



000
FTUS42 TJSJ 011127
TAFJPS
TAF
TJPS 011127Z 0112/0212 12012KT P6SM VCSH SCT025 SCT050
     FM011730 14014G19KT P6SM VCTS SCT025CB BKN050
     FM012300 10010KT P6SM -RA SCT030 BKN060 BKN120
      AMD NOT SKED TIL 020300=



000
FTUS42 TJSJ 011127
TAFJBQ
TAF
TJBQ 011127Z 0112/0212 08010KT P6SM VCSH SCT025 BKN050
     FM011630 07015G25KT P6SM VCTS SCT025CB BKN050
      TEMPO 0117/0121 VRB12G20KT 4SM TSRA BKN020CB OVC030
     FM012300 09008KT P6SM VCSH SCT025 BKN050 BKN120
      AMD NOT SKED 0202/0211=



000
FTUS42 TJSJ 011127
TAFIST
TAF
TIST 011127Z 0112/0212 07007KT P6SM VCSH SCT025 SCT040
     FM011300 12012KT P6SM -RA SCT020 BKN040
     FM012300 09008KT P6SM VCSH SCT025=



000
FTUS42 TJSJ 011127
TAFJPS
TAF
TJPS 011127Z 0112/0212 12012KT P6SM VCSH SCT025 SCT050
     FM011730 14014G19KT P6SM VCTS SCT025CB BKN050
     FM012300 10010KT P6SM -RA SCT030 BKN060 BKN120
      AMD NOT SKED TIL 020300=



000
FTUS42 TJSJ 011127
TAFIST
TAF
TIST 011127Z 0112/0212 07007KT P6SM VCSH SCT025 SCT040
     FM011300 12012KT P6SM -RA SCT020 BKN040
     FM012300 09008KT P6SM VCSH SCT025=



000
FTUS42 TJSJ 011127
TAFJMZ
TAF
TJMZ 011127Z 0112/0212 05003KT P6SM FEW120
     FM011600 27010KT P6SM VCTS SCT025CB BKN040
      TEMPO 0117/0121 VRB12G20KT 4SM TSRA BKN020CB OVC030
     FM012330 07006KT P6SM VCSH SCT030 BKN070 BKN120
      AMD NOT SKED=



000
FTUS42 TJSJ 011127
TAFKPK
TAF
TKPK 011127Z 0112/0212 05007KT P6SM VCTS SCT018CB SCT030
     FM011230 07010KT P6SM VCTS SCT018CB BKN040 BKN120
     FM011700 08012KT P6SM VCSH BKN018
     FM012300 08009KT P6SM SCT022
      AMD NOT SKED 0202/0211=



000
FTUS42 TJSJ 011127
TAFJSJ
TAF
TJSJ 011127Z 0112/0212 11005KT P6SM VCSH FEW022 SCT030
     FM011430 07015KT P6SM -RA FEW030 SCT050 BKN100
     FM011730 07015G25KT P6SM VCTS SCT025CB BKN050
     FM012200 09010KT 5SM RA SCT022 SCT035 BKN070=



000
FTUS42 TJSJ 011127
TAFNCM
TAF
TNCM 011127Z 0112/0212 10007KT P6SM VCSH SCT016 SCT030
     FM011230 10011KT P6SM VCTS SCT018CB BKN040 BKN120
     FM011800 12014KT P6SM VCSH SCT020 SCT030 SCT120
     FM012300 09008KT P6SM SCT025=



000
FTUS42 TJSJ 011127
TAFISX
TAF
TISX 011127Z 0112/0212 07007KT P6SM VCSH SCT025 SCT040
     FM011300 12012KT P6SM -RA SCT020 BKN040
     FM012300 08009KT P6SM VCSH SCT025=



000
FTUS42 TJSJ 011127
TAFJMZ
TAF
TJMZ 011127Z 0112/0212 05003KT P6SM FEW120
     FM011600 27010KT P6SM VCTS SCT025CB BKN040
      TEMPO 0117/0121 VRB12G20KT 4SM TSRA BKN020CB OVC030
     FM012330 07006KT P6SM VCSH SCT030 BKN070 BKN120
      AMD NOT SKED=



000
FTUS42 TJSJ 011127
TAFKPK
TAF
TKPK 011127Z 0112/0212 05007KT P6SM VCTS SCT018CB SCT030
     FM011230 07010KT P6SM VCTS SCT018CB BKN040 BKN120
     FM011700 08012KT P6SM VCSH BKN018
     FM012300 08009KT P6SM SCT022
      AMD NOT SKED 0202/0211=



000
FTUS42 TJSJ 011127
TAFJSJ
TAF
TJSJ 011127Z 0112/0212 11005KT P6SM VCSH FEW022 SCT030
     FM011430 07015KT P6SM -RA FEW030 SCT050 BKN100
     FM011730 07015G25KT P6SM VCTS SCT025CB BKN050
     FM012200 09010KT 5SM RA SCT022 SCT035 BKN070=



000
FTUS42 TJSJ 011127
TAFNCM
TAF
TNCM 011127Z 0112/0212 10007KT P6SM VCSH SCT016 SCT030
     FM011230 10011KT P6SM VCTS SCT018CB BKN040 BKN120
     FM011800 12014KT P6SM VCSH SCT020 SCT030 SCT120
     FM012300 09008KT P6SM SCT025=



000
FTUS42 TJSJ 011127
TAFJBQ
TAF
TJBQ 011127Z 0112/0212 08010KT P6SM VCSH SCT025 BKN050
     FM011630 07015G25KT P6SM VCTS SCT025CB BKN050
      TEMPO 0117/0121 VRB12G20KT 4SM TSRA BKN020CB OVC030
     FM012300 09008KT P6SM VCSH SCT025 BKN050 BKN120
      AMD NOT SKED 0202/0211=



000
FTUS42 TJSJ 011127
TAFISX
TAF
TISX 011127Z 0112/0212 07007KT P6SM VCSH SCT025 SCT040
     FM011300 12012KT P6SM -RA SCT020 BKN040
     FM012300 08009KT P6SM VCSH SCT025=



000
FTUS42 TJSJ 010820 AAA
TAFKPK
TAF AMD
TKPK 010820Z 0108/0206 05007KT P6SM VCTS SCT018CB SCT030
      TEMPO 0108/0111 VRB12G20KT 4SM TSRA BKN018CB OVC030
     FM011230 07010KT P6SM VCTS SCT018CB BKN040 BKN120
     FM011700 08012KT P6SM VCSH BKN018
      AMD NOT SKED TIL 011100=



000
FTUS42 TJSJ 010547
TAFISX
TAF
TISX 010547Z 0106/0206 07007KT P6SM VCSH SCT025 SCT040
      TEMPO 0106/0108 -RA BKN030
     FM011300 12012KT P6SM -RA SCT020 BKN040
     FM012300 08009KT P6SM VCSH SCT025=



000
FTUS42 TJSJ 010547
TAFNCM
TAF
TNCM 010547Z 0106/0206 10007KT P6SM VCSH SCT016 SCT030
      TEMPO 0106/0108 VRB12KT SHRA BKN018
     FM011230 10011KT P6SM VCTS SCT018CB BKN040 BKN120
     FM011800 12014KT P6SM VCSH SCT020 SCT030 SCT120=



000
FTUS42 TJSJ 010547
TAFKPK
TAF
TKPK 010547Z 0106/0206 05007KT P6SM VCSH SCT018 SCT030
     FM011230 07010KT P6SM VCTS SCT018CB BKN040 BKN120
     FM011700 08012KT P6SM VCSH SCT025 SCT120
      AMD NOT SKED TIL 011100=



000
FTUS42 TJSJ 010547
TAFJSJ
TAF
TJSJ 010547Z 0106/0206 11005KT P6SM VCSH FEW022 SCT030
     FM011430 07015KT P6SM -RA FEW030 SCT050 BKN100
     FM011730 07015G25KT P6SM VCTS SCT025CB BKN050
     FM012200 09010KT 5SM RA SCT022 SCT035 BKN070=



000
FTUS42 TJSJ 010547
TAFIST
TAF
TIST 010547Z 0106/0206 07007KT P6SM VCSH SCT025 SCT040
      TEMPO 0106/0109 -RA BKN030
     FM011300 12012KT P6SM -RA SCT020 BKN040
     FM012300 09008KT P6SM VCSH SCT025=



000
FTUS42 TJSJ 010547
TAFJMZ
TAF
TJMZ 010547Z 0106/0206 05003KT P6SM FEW120
     FM011600 27010KT P6SM VCTS SCT025CB BKN040
      TEMPO 0117/0121 VRB12G20KT 4SM TSRA BKN020CB OVC030
     FM012330 07006KT P6SM VCSH SCT030 BKN070 BKN120
      AMD NOT SKED TIL 011100=



000
FTUS42 TJSJ 010547
TAFJBQ
TAF
TJBQ 010547Z 0106/0206 11005KT P6SM VCSH FEW025
     FM011200 08010KT P6SM VCSH SCT025 BKN050
     FM011630 07015G25KT P6SM VCTS SCT025CB BKN050
      TEMPO 0117/0121 VRB12G20KT 4SM TSRA BKN020CB OVC030
     FM012300 09008KT P6SM VCSH SCT025 BKN050 BKN120
      AMD NOT SKED TIL 011100=



000
FTUS42 TJSJ 010547
TAFJPS
TAF
TJPS 010547Z 0106/0206 09007KT P6SM FEW030 SCT060
     FM011200 12012KT P6SM VCSH SCT025 SCT050
     FM011730 14014G19KT P6SM VCTS SCT025CB BKN050
     FM012300 10010KT P6SM -RA SCT030 BKN060 BKN120=



000
FTUS42 TJSJ 010547
TAFIST
TAF
TIST 010547Z 0106/0206 07007KT P6SM VCSH SCT025 SCT040
      TEMPO 0106/0109 -RA BKN030
     FM011300 12012KT P6SM -RA SCT020 BKN040
     FM012300 09008KT P6SM VCSH SCT025=



000
FTUS42 TJSJ 010547
TAFJSJ
TAF
TJSJ 010547Z 0106/0206 11005KT P6SM VCSH FEW022 SCT030
     FM011430 07015KT P6SM -RA FEW030 SCT050 BKN100
     FM011730 07015G25KT P6SM VCTS SCT025CB BKN050
     FM012200 09010KT 5SM RA SCT022 SCT035 BKN070=



000
FTUS42 TJSJ 010547
TAFJPS
TAF
TJPS 010547Z 0106/0206 09007KT P6SM FEW030 SCT060
     FM011200 12012KT P6SM VCSH SCT025 SCT050
     FM011730 14014G19KT P6SM VCTS SCT025CB BKN050
     FM012300 10010KT P6SM -RA SCT030 BKN060 BKN120=



000
FTUS42 TJSJ 010547
TAFJMZ
TAF
TJMZ 010547Z 0106/0206 05003KT P6SM FEW120
     FM011600 27010KT P6SM VCTS SCT025CB BKN040
      TEMPO 0117/0121 VRB12G20KT 4SM TSRA BKN020CB OVC030
     FM012330 07006KT P6SM VCSH SCT030 BKN070 BKN120
      AMD NOT SKED TIL 011100=



000
FTUS42 TJSJ 010547
TAFISX
TAF
TISX 010547Z 0106/0206 07007KT P6SM VCSH SCT025 SCT040
      TEMPO 0106/0108 -RA BKN030
     FM011300 12012KT P6SM -RA SCT020 BKN040
     FM012300 08009KT P6SM VCSH SCT025=



000
FTUS42 TJSJ 010547
TAFNCM
TAF
TNCM 010547Z 0106/0206 10007KT P6SM VCSH SCT016 SCT030
      TEMPO 0106/0108 VRB12KT SHRA BKN018
     FM011230 10011KT P6SM VCTS SCT018CB BKN040 BKN120
     FM011800 12014KT P6SM VCSH SCT020 SCT030 SCT120=



000
FTUS42 TJSJ 010547
TAFKPK
TAF
TKPK 010547Z 0106/0206 05007KT P6SM VCSH SCT018 SCT030
     FM011230 07010KT P6SM VCTS SCT018CB BKN040 BKN120
     FM011700 08012KT P6SM VCSH SCT025 SCT120
      AMD NOT SKED TIL 011100=



000
FTUS42 TJSJ 010547
TAFJBQ
TAF
TJBQ 010547Z 0106/0206 11005KT P6SM VCSH FEW025
     FM011200 08010KT P6SM VCSH SCT025 BKN050
     FM011630 07015G25KT P6SM VCTS SCT025CB BKN050
      TEMPO 0117/0121 VRB12G20KT 4SM TSRA BKN020CB OVC030
     FM012300 09008KT P6SM VCSH SCT025 BKN050 BKN120
      AMD NOT SKED TIL 011100=



000
FTUS42 TJSJ 312339
TAFISX
TAF
TISX 312339Z 0100/0124 09010KT P6SM FEW030
     FM010500 07007KT P6SM VCSH SCT025 SCT040 PROB30 0109/0112
      VRB12KT 5SM SHRA BKN025 BKN040
     FM011300 12012KT P6SM -RA SCT025 BKN050=



000
FTUS42 TJSJ 312339
TAFJPS
TAF
TJPS 312339Z 0100/0124 09007KT P6SM FEW030 SCT060
     FM011200 12012KT P6SM VCSH SCT025 SCT050
     FM011730 14014G19KT P6SM VCTS FEW025CB BKN050
     FM012300 10010KT P6SM -RA SCT030 BKN060 BKN120
      AMD NOT SKED TIL 010300=



000
FTUS42 TJSJ 312339
TAFJSJ
TAF
TJSJ 312339Z 0100/0124 08009KT P6SM FEW025 SCT100
     FM010600 10005KT P6SM VCSH SCT025 SCT040 PROB30 0109/0112
      VRB12KT 5SM SHRA BKN025
     FM011430 07015KT P6SM -RA FEW030 SCT050 BKN100
     FM011730 07015G25KT P6SM VCSH SCT025 BKN050=



000
FTUS42 TJSJ 312339
TAFNCM
TAF
TNCM 312339Z 0100/0124 09011KT P6SM VCSH FEW018 SCT035
     FM010230 08007KT P6SM VCTS SCT016CB SCT030
      TEMPO 0103/0107 VRB12KT 4SM -TSRA BKN018CB BKN040
     FM011230 10011KT P6SM -RA SCT020 BKN050 BKN120
     FM011700 12014KT P6SM FEW022 SCT030 SCT120=



000
FTUS42 TJSJ 312339
TAFJMZ
TAF
TJMZ 312339Z 0100/0124 08008KT P6SM FEW030 SCT060 SCT120
     FM010300 05003KT P6SM FEW120
     FM011600 27010KT P6SM VCTS SCT025CB BKN040
     FM012330 07006KT P6SM SCT030 BKN070 BKN120
      AMD NOT SKED TIL 011100=



000
FTUS42 TJSJ 312339
TAFKPK
TAF
TKPK 312339Z 0100/0124 06011KT P6SM VCSH FEW018 SCT035
     FM010200 05007KT P6SM VCTS SCT018CB SCT030
      TEMPO 0103/0107 VRB12KT 4SM -TSRA BKN018CB BKN040
     FM011230 07010KT P6SM -RA SCT020 BKN050 BKN120
     FM011700 08012KT P6SM FEW022 SCT030 SCT120
      AMD NOT SKED 0102/0111=



000
FTUS42 TJSJ 312339
TAFJBQ
TAF
TJBQ 312339Z 0100/0124 09008KT P6SM FEW030 SCT050 SCT120
     FM010300 10006KT P6SM FEW030 PROB30 0109/0112 -SHRA SCT025
      BKN040
     FM011200 08010KT P6SM VCSH SCT025 BKN050
     FM011630 07015G25KT P6SM VCTS SCT025CB BKN050
      TEMPO 0117/0121 VRB12G20KT 4SM TSRA BKN022CB
      AMD NOT SKED 0102/0111=



000
FTUS42 TJSJ 312339
TAFIST
TAF
TIST 312339Z 0100/0124 09010KT P6SM FEW035
     FM010500 07007KT P6SM VCSH SCT025 SCT040 PROB30 0109/0112
      VRB12KT 5SM SHRA BKN025 BKN040
     FM011300 12012KT P6SM -RA SCT025 BKN050=



000
FTUS42 TJSJ 311924 AAA
TAFJMZ
TAF AMD
TJMZ 311924Z 3120/0118 08006KT P6SM VCTS SCT022CB BKN040
      TEMPO 3119/3122 5SM TSRA BKN030CB
     FM312200 08008KT P6SM SCT040
     FM011600 27010KT P6SM VCTS SCT025 BKN040CB=



000
FTUS42 TJSJ 311729
TAFKPK
TAF
TKPK 311729Z 3118/0118 03008KT P6SM VCSH FEW016 SCT020
     FM312300 06010KT P6SM VCTS BKN020CB BKN040
     FM011600 07015KT P6SM VCSH SCT018 SCT035
      AMD NOT SKED 0102/0111=



000
FTUS42 TJSJ 311729
TAFNCM
TAF
TNCM 311729Z 3118/0118 09011KT P6SM FEW025
     FM010200 11009KT P6SM VCTS SCT016CB SCT030
     FM011230 08010KT P6SM FEW020
     FM011700 09014KT P6SM VCSH SCT020 SCT030=



000
FTUS42 TJSJ 311729
TAFJMZ
TAF
TJMZ 311729Z 3118/0118 08006KT P6SM FEW040
     FM312200 08008KT P6SM SCT040
     FM011600 27010KT P6SM VCTS SCT025 BKN040CB=



000
FTUS42 TJSJ 311729
TAFJSJ
TAF
TJSJ 311729Z 3118/0118 07017G23KT P6SM FEW030 SCT080
     FM312200 09010KT P6SM SCT030
     FM011430 07015KT P6SM FEW030
     FM011700 07015G25KT P6SM VCSH SCT025 SCT050=



000
FTUS42 TJSJ 311729
TAFISX
TAF
TISX 311729Z 3118/0118 11015KT P6SM SCT025
     FM312230 08006KT P6SM VCSH SCT022 SCT040
     FM011300 10015KT P6SM FEW030=



000
FTUS42 TJSJ 311729
TAFJBQ
TAF
TJBQ 311729Z 3118/0118 08017G22KT P6SM SCT016
     FM312300 09008KT P6SM SCT030 SCT050
     FM011330 08012G20KT P6SM FEW030
     FM011630 07015G25KT P6SM VCSH SCT025
      AMD NOT SKED 0102/0111=



000
FTUS42 TJSJ 311729
TAFJPS
TAF
TJPS 311729Z 3118/0118 12010G15KT P6SM FEW025
     FM312330 09007KT P6SM FEW030 SCT060
     FM011400 14010G15KT P6SM FEW030 SCT050
      AMD NOT SKED TIL 010300=



000
FTUS42 TJSJ 311729
TAFIST
TAF
TIST 311729Z 3118/0118 12010KT P6SM SCT035
     FM312300 09008KT P6SM VCSH SCT030
     FM011300 12015KT P6SM FEW030=



000
FTUS42 TJSJ 311127
TAFNCM
TAF
TNCM 311127Z 3112/0112 07007KT P6SM FEW020
     FM311230 08010KT P6SM FEW020
     FM311800 09014KT P6SM VCSH SCT020 SCT030
     FM010200 11009KT P6SM VCTS SCT016CB SCT030=



000
FTUS42 TJSJ 311127
TAFKPK
TAF
TKPK 311127Z 3112/0112 05010KT P6SM FEW020
     FM311600 07015KT P6SM VCSH SCT018 SCT035
     FM312300 06010KT P6SM VCTS BKN020CB BKN040
      AMD NOT SKED 0102/0111=



000
FTUS42 TJSJ 311127
TAFJPS
TAF
TJPS 311127Z 3112/0112 05005KT P6SM FEW025 SCT060
     FM311400 14010G15KT P6SM FEW030 SCT050
     FM312330 09007KT P6SM FEW030 SCT060
      AMD NOT SKED TIL 010300=



000
FTUS42 TJSJ 311127
TAFJSJ
TAF
TJSJ 311127Z 3112/0112 12005KT P6SM VCSH SCT030
     FM311430 07015KT P6SM FEW030
     FM311700 07015G25KT P6SM VCSH SCT025 SCT050
     FM312200 09010KT P6SM SCT030=



000
FTUS42 TJSJ 311127
TAFJBQ
TAF
TJBQ 311127Z 3112/0112 10007KT P6SM VCSH FEW030
     FM311330 08012G20KT P6SM FEW030
     FM311630 07015G25KT P6SM VCSH SCT025
     FM312300 09008KT P6SM SCT030 SCT050
      AMD NOT SKED 0102/0111=



000
FTUS42 TJSJ 311127
TAFIST
TAF
TIST 311127Z 3112/0112 08008KT P6SM VCSH FEW025
     FM311300 12015KT P6SM FEW030
     FM312300 09008KT P6SM VCSH SCT030=



000
FTUS42 TJSJ 311127
TAFJMZ
TAF
TJMZ 311127Z 3112/0112 08006KT P6SM SKC
     FM311600 27010KT P6SM VCTS SCT025 BKN040CB
     FM312200 08008KT P6SM SCT040
      AMD NOT SKED TIL 311500=



000
FTUS42 TJSJ 311127
TAFISX
TAF
TISX 311127Z 3112/0112 06009KT P6SM VCSH FEW025
     FM311300 10015KT P6SM FEW030
     FM312230 08006KT P6SM VCSH SCT022 SCT040=



000
FTUS42 TJSJ 311127
TAFKPK
TAF
TKPK 311127Z 3112/0112 05010KT P6SM FEW020
     FM311600 07015KT P6SM VCSH SCT018 SCT035
     FM312300 06010KT P6SM VCTS BKN020CB BKN040
      AMD NOT SKED 0102/0111=



000
FTUS42 TJSJ 311127
TAFNCM
TAF
TNCM 311127Z 3112/0112 07007KT P6SM FEW020
     FM311230 08010KT P6SM FEW020
     FM311800 09014KT P6SM VCSH SCT020 SCT030
     FM010200 11009KT P6SM VCTS SCT016CB SCT030=



000
FTUS42 TJSJ 311127
TAFJBQ
TAF
TJBQ 311127Z 3112/0112 10007KT P6SM VCSH FEW030
     FM311330 08012G20KT P6SM FEW030
     FM311630 07015G25KT P6SM VCSH SCT025
     FM312300 09008KT P6SM SCT030 SCT050
      AMD NOT SKED 0102/0111=



000
FTUS42 TJSJ 311127
TAFJMZ
TAF
TJMZ 311127Z 3112/0112 08006KT P6SM SKC
     FM311600 27010KT P6SM VCTS SCT025 BKN040CB
     FM312200 08008KT P6SM SCT040
      AMD NOT SKED TIL 311500=



000
FTUS42 TJSJ 311127
TAFIST
TAF
TIST 311127Z 3112/0112 08008KT P6SM VCSH FEW025
     FM311300 12015KT P6SM FEW030
     FM312300 09008KT P6SM VCSH SCT030=



000
FTUS42 TJSJ 311127
TAFISX
TAF
TISX 311127Z 3112/0112 06009KT P6SM VCSH FEW025
     FM311300 10015KT P6SM FEW030
     FM312230 08006KT P6SM VCSH SCT022 SCT040=



000
FTUS42 TJSJ 310539
TAFJPS
TAF
TJPS 310539Z 3106/0106 05005KT P6SM FEW025 SCT060
     FM311400 14010G15KT P6SM FEW030 SCT050
     FM312330 09007KT P6SM FEW030 SCT060
      AMD NOT SKED 3112/0103=



000
FTUS42 TJSJ 310539
TAFJMZ
TAF
TJMZ 310539Z 3106/0106 08006KT P6SM SKC
     FM311600 27010KT P6SM VCTS SCT025 BKN040CB
     FM312200 08008KT P6SM SCT040
      AMD NOT SKED TIL 311500=



000
FTUS42 TJSJ 310539
TAFJSJ
TAF
TJSJ 310539Z 3106/0106 12005KT P6SM VCSH FEW030
     FM311430 07015KT P6SM FEW030
     FM311700 07015G25KT P6SM VCSH SCT025 SCT050
     FM312200 09010KT P6SM SCT030=



000
FTUS42 TJSJ 310539
TAFNCM
TAF
TNCM 310539Z 3106/0106 07007KT P6SM FEW020
     FM311230 08010KT P6SM FEW020
     FM311800 09014KT P6SM VCSH SCT020 SCT030
     FM010200 11009KT P6SM VCTS SCT016CB SCT030=



000
FTUS42 TJSJ 310539
TAFISX
TAF
TISX 310539Z 3106/0106 06009KT P6SM FEW025
     FM311300 10015KT P6SM FEW030
     FM312230 08006KT P6SM VCSH SCT022 SCT040=



000
FTUS42 TJSJ 310539
TAFJBQ
TAF
TJBQ 310539Z 3106/0106 10007KT P6SM VCSH FEW030
     FM311330 08012G20KT P6SM FEW030
     FM311630 07015G25KT P6SM VCSH SCT025
     FM312300 09008KT P6SM SCT030 SCT050
      AMD NOT SKED TIL 311100=



000
FTUS42 TJSJ 310539
TAFIST
TAF
TIST 310539Z 3106/0106 08008KT P6SM FEW025
     FM311300 12015KT P6SM FEW030
     FM312300 09008KT P6SM VCSH SCT030=



000
FTUS42 TJSJ 310539
TAFKPK
TAF
TKPK 310539Z 3106/0106 05010KT P6SM FEW020
     FM311600 07015KT P6SM VCSH SCT018 SCT035
     FM312300 06010KT P6SM VCTS BKN020CB BKN040
      AMD NOT SKED TIL 311100=



000
FTUS42 TJSJ 310539
TAFNCM
TAF
TNCM 310539Z 3106/0106 07007KT P6SM FEW020
     FM311230 08010KT P6SM FEW020
     FM311800 09014KT P6SM VCSH SCT020 SCT030
     FM010200 11009KT P6SM VCTS SCT016CB SCT030=



000
FTUS42 TJSJ 310539
TAFKPK
TAF
TKPK 310539Z 3106/0106 05010KT P6SM FEW020
     FM311600 07015KT P6SM VCSH SCT018 SCT035
     FM312300 06010KT P6SM VCTS BKN020CB BKN040
      AMD NOT SKED TIL 311100=



    US Dept of Commerce
    National Oceanic and Atmospheric Administration
    National Weather Service
    1325 East West Highway
    Silver Spring, MD 20910
    Page Author: NWS Internet Services Team
Disclaimer
Information Quality
Credits
Glossary
Privacy Policy
Freedom of Information Act (FOIA)
About Us
Career Opportunities